Kailua, HI

1:52 AM HST on May 04, 2015 (GMT -1000)
Kailua Beach | | Change Station
CLOSE
Current Station
Personal Weather Station
Location: Kailua, HI
Elevation: 10 ft
Nearby Weather Stations

Elev 10 ft 21.40 °N, 157.73 °W | Updated 8 minutes ago

Overcast
Overcast
75.0 °F
Feels Like 75 °F
N
5.0
Wind Variable Wind from East
Gusts 16.0 mph

Today
High -- | Low -- °F
--% Chance of Precip.
Yesterday
High -- | Low -- °F
Precip. -- in
5:58 AM 6:57 PM
Full, 100% visible
Pressure 30.01 in
Visibility -9999.0 miles
Clouds Mostly Cloudy 3000 ft
Mostly Cloudy 3800 ft
Overcast 8500 ft
Heat Index 75 °F
Dew Point 69 °F
Humidity 81%
Rainfall 0.00 in
Snow Depth Not available.
UV 0 out of 12
Pollen Not available.
Air Quality Not available.
Flu Activity Regional
SPECI PHNG 041126Z AUTO 08007G15KT BKN030 BKN038 OVC085 24/18 A3001 RMK AO2 T02390178 $

More Conditions Fewer Conditions

Pressure 30.01 in
Visibility -9999.0 miles
Clouds Mostly Cloudy 3000 ft
Mostly Cloudy 3800 ft
Overcast 8500 ft
Heat Index 75 °F
Dew Point 69 °F
Humidity 81%
Rainfall 0.00 in
Snow Depth Not available.
UV 0 out of 12
Pollen Not available.
Air Quality Not available.
Flu Activity Regional
SPECI PHNG 041126Z AUTO 08007G15KT BKN030 BKN038 OVC085 24/18 A3001 RMK AO2 T02390178 $

More Conditions Fewer Conditions

10-Day Weather Forecast

Almanac

Astronomy

May. 04, 2015 Rise Set
Actual Time
Civil Twilight
Nautical Twilight
Astronomical Twilight
Moon
Length of Visible Light
Length of Day
Tomorrow will be .
, % of the Moon is Illuminated

Today's Extremes

State Highs State Lows

Community

WunderPhotos

Upload Photos

1,818,578 photos uploaded!

WunderBlogs® & News

Nearby

Air Quality

  Air Quality AQ Index Pollutant
Not available.

Snow Depth

Station Depth Elevation

Earthquake Activity

City Distance Mag. Time & Date
Minimum magnitude displayed is 2.5.

Coastal Water Temperatures

Place Temperature

Stations

Nearby Weather Stations

Station Location Temp. Windchill Dew Point Humidity Wind Precip. Elev Updated Type